createdAt,value
2022-12-08T00:00:30.981Z,2.10
2022-12-08T00:01:30.978Z,2.20
2022-12-08T00:02:31.105Z,2.10
2022-12-08T00:03:31.123Z,2.00
2022-12-08T00:04:30.943Z,2.20
2022-12-08T00:05:31.063Z,2.90
2022-12-08T00:06:30.922Z,2.90
2022-12-08T00:07:30.922Z,2.30
2022-12-08T00:08:30.904Z,2.20
2022-12-08T00:09:36.312Z,2.20
2022-12-08T00:11:30.908Z,2.10
2022-12-08T00:12:30.882Z,2.20
2022-12-08T00:13:30.857Z,2.20
2022-12-08T00:14:30.848Z,2.10
2022-12-08T00:15:30.841Z,2.10
2022-12-08T00:16:30.873Z,1.90
2022-12-08T00:17:30.950Z,1.80
2022-12-08T00:18:30.803Z,1.60
2022-12-08T00:19:30.794Z,1.80
2022-12-08T00:20:30.777Z,1.80
2022-12-08T00:21:30.798Z,1.90
2022-12-08T00:22:30.759Z,1.80
2022-12-08T00:23:30.775Z,1.80
2022-12-08T00:24:30.751Z,1.60
2022-12-08T00:25:30.733Z,1.70
2022-12-08T00:26:30.719Z,1.70
2022-12-08T00:27:30.712Z,1.60
2022-12-08T00:28:30.692Z,1.60
2022-12-08T00:29:30.715Z,1.80
2022-12-08T00:30:30.690Z,1.50
2022-12-08T00:31:30.775Z,1.40
2022-12-08T00:32:30.679Z,1.50
2022-12-08T00:33:30.648Z,1.50
2022-12-08T00:34:30.632Z,1.50
2022-12-08T00:35:30.870Z,1.60
2022-12-08T00:36:30.622Z,1.50
2022-12-08T00:37:30.611Z,1.40
2022-12-08T00:38:30.582Z,1.60
2022-12-08T00:39:30.581Z,1.60
2022-12-08T00:40:30.561Z,1.50
2022-12-08T00:41:30.588Z,1.40
2022-12-08T00:42:30.559Z,1.60
2022-12-08T00:43:30.543Z,2.30
2022-12-08T00:44:30.527Z,2.70
2022-12-08T00:45:30.579Z,2.20
2022-12-08T00:46:30.575Z,1.90
2022-12-08T00:47:30.545Z,1.70
2022-12-08T00:48:30.492Z,1.80
2022-12-08T00:49:30.491Z,1.90
2022-12-08T00:50:30.461Z,1.60
2022-12-08T00:51:30.459Z,1.70
2022-12-08T00:52:30.446Z,1.80
2022-12-08T00:53:30.582Z,1.80
2022-12-08T00:54:30.419Z,1.70
2022-12-08T00:55:30.423Z,1.80
2022-12-08T00:56:30.403Z,1.70
2022-12-08T00:57:30.394Z,1.50
2022-12-08T00:58:30.384Z,1.40
2022-12-08T00:59:30.505Z,1.70
2022-12-08T01:00:30.365Z,1.60
2022-12-08T01:01:30.383Z,1.60
2022-12-08T01:02:30.338Z,1.50
2022-12-08T01:03:30.418Z,1.50
2022-12-08T01:04:30.323Z,1.40
2022-12-08T01:05:30.478Z,1.50
2022-12-08T01:06:30.298Z,1.50
2022-12-08T01:07:30.296Z,1.40
2022-12-08T01:08:30.279Z,1.40
2022-12-08T01:09:30.279Z,1.40
2022-12-08T01:10:30.261Z,1.40
2022-12-08T01:11:30.277Z,1.30
2022-12-08T01:12:30.265Z,1.50
2022-12-08T01:13:30.228Z,1.60
2022-12-08T01:14:30.219Z,1.30
2022-12-08T01:15:30.207Z,1.20
2022-12-08T01:16:30.261Z,1.20
2022-12-08T01:17:30.223Z,1.30
2022-12-08T01:18:30.212Z,1.40
2022-12-08T01:19:30.172Z,1.30
2022-12-08T01:20:30.174Z,1.30
2022-12-08T01:21:30.157Z,1.30
2022-12-08T01:22:30.142Z,2.70
2022-12-08T01:23:30.266Z,3.00
2022-12-08T01:24:30.122Z,4.50
2022-12-08T01:25:30.104Z,3.90
2022-12-08T01:26:30.092Z,2.90
2022-12-08T01:27:30.090Z,2.40
2022-12-08T01:28:30.074Z,2.30
2022-12-08T01:29:30.096Z,2.50
2022-12-08T01:30:30.119Z,2.40
2022-12-08T01:31:30.042Z,2.20
2022-12-08T01:32:30.031Z,2.20
2022-12-08T01:33:30.024Z,2.20
2022-12-08T01:34:30.011Z,2.30
2022-12-08T01:35:30.137Z,1.90
2022-12-08T01:36:29.995Z,1.80
2022-12-08T01:37:29.997Z,1.80
2022-12-08T01:38:29.966Z,1.80
2022-12-08T01:39:29.957Z,1.80
2022-12-08T01:40:29.949Z,1.80
2022-12-08T01:41:29.991Z,1.80
2022-12-08T01:42:29.932Z,1.90
2022-12-08T01:43:29.917Z,1.70
2022-12-08T01:44:29.904Z,1.70
2022-12-08T01:45:29.901Z,1.70
2022-12-08T01:46:29.929Z,1.60
2022-12-08T01:47:30.057Z,1.50
2022-12-08T01:48:29.859Z,1.60
2022-12-08T01:49:29.863Z,1.70
2022-12-08T01:50:29.851Z,1.80
2022-12-08T01:51:29.859Z,1.60
2022-12-08T01:52:29.827Z,1.60
2022-12-08T01:53:29.850Z,1.50
2022-12-08T01:54:29.813Z,1.50
2022-12-08T01:55:29.801Z,1.30
2022-12-08T01:56:29.785Z,1.40
2022-12-08T01:57:29.780Z,1.40
2022-12-08T01:58:29.766Z,1.50
2022-12-08T01:59:29.795Z,1.30
2022-12-08T02:00:29.739Z,1.40
2022-12-08T02:01:29.889Z,1.50
2022-12-08T02:02:29.807Z,1.30
2022-12-08T02:03:29.717Z,1.50
2022-12-08T02:04:29.722Z,1.50
2022-12-08T02:05:29.715Z,1.60
2022-12-08T02:06:29.678Z,1.40
2022-12-08T02:07:29.683Z,1.40
2022-12-08T02:08:29.732Z,1.60
2022-12-08T02:09:29.651Z,1.70
2022-12-08T02:10:29.646Z,3.40
2022-12-08T02:11:29.783Z,3.70
2022-12-08T02:12:29.636Z,2.60
2022-12-08T02:13:29.613Z,2.40
2022-12-08T02:14:29.598Z,2.00
2022-12-08T02:15:29.615Z,2.20
2022-12-08T02:16:29.620Z,2.20
2022-12-08T02:17:29.724Z,2.10
2022-12-08T02:18:29.551Z,2.00
2022-12-08T02:19:31.172Z,2.00
2022-12-08T02:20:29.535Z,1.80
2022-12-08T02:21:29.537Z,1.90
2022-12-08T02:22:29.527Z,1.80
2022-12-08T02:23:29.544Z,1.90
2022-12-08T02:24:29.503Z,1.80
2022-12-08T02:25:29.493Z,1.60
2022-12-08T02:26:29.479Z,1.60
2022-12-08T02:27:29.464Z,1.70
2022-12-08T02:28:29.457Z,1.80
2022-12-08T02:29:29.596Z,1.80
2022-12-08T02:30:29.502Z,1.70
2022-12-08T02:31:29.468Z,1.60
2022-12-08T02:32:29.417Z,1.50
2022-12-08T02:33:29.416Z,1.60
2022-12-08T02:34:29.393Z,1.60
2022-12-08T02:35:29.535Z,1.50
2022-12-08T02:36:29.372Z,1.50
2022-12-08T02:37:29.383Z,1.50
2022-12-08T02:38:29.364Z,1.50
2022-12-08T02:39:29.352Z,1.40
2022-12-08T02:40:29.345Z,1.60
2022-12-08T02:41:29.460Z,1.50
2022-12-08T02:42:29.314Z,1.60
2022-12-08T02:43:29.307Z,1.80
2022-12-08T02:44:29.294Z,1.80
2022-12-08T02:45:29.288Z,1.60
2022-12-08T02:46:29.314Z,1.50
2022-12-08T02:47:29.571Z,1.50
2022-12-08T02:48:29.251Z,1.70
2022-12-08T02:49:29.238Z,1.40
2022-12-08T02:50:29.226Z,1.50
2022-12-08T02:51:29.224Z,1.40
2022-12-08T02:52:29.207Z,1.50
2022-12-08T02:53:29.250Z,1.30
2022-12-08T02:54:29.186Z,1.40
2022-12-08T02:55:29.183Z,1.40
2022-12-08T02:56:29.162Z,1.40
2022-12-08T02:57:29.158Z,1.40
2022-12-08T02:58:29.148Z,1.20
2022-12-08T02:59:29.301Z,1.30
2022-12-08T03:00:29.127Z,1.30
2022-12-08T03:01:29.246Z,1.40
2022-12-08T03:02:29.137Z,1.30
2022-12-08T03:03:29.096Z,1.30
2022-12-08T03:04:29.091Z,1.30
2022-12-08T03:05:29.106Z,1.30
2022-12-08T03:06:29.061Z,1.40
2022-12-08T03:07:29.057Z,1.10
2022-12-08T03:08:29.164Z,1.10
2022-12-08T03:09:29.036Z,1.20
2022-12-08T03:10:29.021Z,1.30
2022-12-08T03:11:29.159Z,1.30
2022-12-08T03:12:29.002Z,1.30
2022-12-08T03:13:28.991Z,1.00
2022-12-08T03:14:28.975Z,1.30
2022-12-08T03:15:29.038Z,1.20
2022-12-08T03:16:29.051Z,1.30
2022-12-08T03:17:29.109Z,1.20
2022-12-08T03:18:28.972Z,1.10
2022-12-08T03:19:31.924Z,1.10
2022-12-08T03:20:28.923Z,1.20
2022-12-08T03:21:28.915Z,1.10
2022-12-08T03:22:28.916Z,1.10
2022-12-08T03:23:29.023Z,1.30
2022-12-08T03:24:28.880Z,1.30
2022-12-08T03:25:28.874Z,1.00
2022-12-08T03:26:28.865Z,1.10
2022-12-08T03:27:28.851Z,1.00
2022-12-08T03:28:28.842Z,1.20
2022-12-08T03:29:28.997Z,1.20
2022-12-08T03:30:28.819Z,1.10
2022-12-08T03:31:28.922Z,1.00
2022-12-08T03:32:28.802Z,1.00
2022-12-08T03:33:28.785Z,1.10
2022-12-08T03:34:28.776Z,1.20
2022-12-08T03:35:28.896Z,1.30
2022-12-08T03:36:28.759Z,0.90
2022-12-08T03:37:28.743Z,0.80
2022-12-08T03:38:28.735Z,0.90
2022-12-08T03:39:28.731Z,1.10
2022-12-08T03:40:28.709Z,1.30
2022-12-08T03:41:28.769Z,1.20
2022-12-08T03:42:28.697Z,1.00
2022-12-08T03:43:28.681Z,1.10
2022-12-08T03:44:28.669Z,1.20
2022-12-08T03:45:28.668Z,1.20
2022-12-08T03:46:59.681Z,1.20
2022-12-08T03:48:01.321Z,1.30
2022-12-08T03:49:00.669Z,1.20
2022-12-08T03:50:00.764Z,1.10
2022-12-08T03:51:00.641Z,1.20
2022-12-08T03:52:00.720Z,1.20
2022-12-08T03:53:00.623Z,1.10
2022-12-08T03:54:00.616Z,1.10
2022-12-08T03:55:00.610Z,1.20
2022-12-08T03:56:00.600Z,1.30
2022-12-08T03:57:00.583Z,1.20
2022-12-08T03:58:00.731Z,1.20
2022-12-08T03:59:00.558Z,1.10
2022-12-08T04:00:00.808Z,1.10
2022-12-08T04:01:00.537Z,1.20
2022-12-08T04:02:00.621Z,1.10
2022-12-08T04:03:00.535Z,1.00
2022-12-08T04:04:00.537Z,1.10
2022-12-08T04:05:00.492Z,1.20
2022-12-08T04:06:00.492Z,1.00
2022-12-08T04:07:00.470Z,1.00
2022-12-08T04:08:00.525Z,1.10
2022-12-08T04:09:00.467Z,1.10
2022-12-08T04:10:00.486Z,1.30
2022-12-08T04:11:00.436Z,1.20
2022-12-08T04:12:00.423Z,1.30
2022-12-08T04:13:00.426Z,1.20
2022-12-08T04:14:00.402Z,1.10
2022-12-08T04:15:00.393Z,1.20
2022-12-08T04:16:00.590Z,1.50
2022-12-08T04:17:00.380Z,1.60
2022-12-08T04:18:00.374Z,1.50
2022-12-08T04:19:00.351Z,1.60
2022-12-08T04:20:00.521Z,1.50
2022-12-08T04:21:00.327Z,1.40
2022-12-08T04:22:00.353Z,1.40
2022-12-08T04:23:00.313Z,1.40
2022-12-08T04:24:01.467Z,1.50
2022-12-08T04:25:00.294Z,1.40
2022-12-08T04:26:00.282Z,1.30
2022-12-08T04:27:00.265Z,1.30
2022-12-08T04:28:00.388Z,1.50
2022-12-08T04:29:00.246Z,1.30
2022-12-08T04:30:00.240Z,1.20
2022-12-08T04:31:00.290Z,1.30
2022-12-08T04:32:00.223Z,1.20
2022-12-08T04:33:00.202Z,1.10
2022-12-08T04:34:00.329Z,1.10
2022-12-08T04:35:00.179Z,1.10
2022-12-08T04:36:00.199Z,1.30
2022-12-08T04:37:00.158Z,1.40
2022-12-08T05:15:41.126Z,1.30
2022-12-08T05:16:41.426Z,1.30
2022-12-08T05:17:41.342Z,1.30
2022-12-08T05:18:41.294Z,1.30
2022-12-08T05:19:41.235Z,1.20
2022-12-08T05:20:41.334Z,1.20
2022-12-08T05:21:41.127Z,1.20
2022-12-08T05:22:41.072Z,1.20
2022-12-08T05:23:41.007Z,1.30
2022-12-08T05:24:46.978Z,1.20
2022-12-08T05:25:40.913Z,1.10
2022-12-08T05:26:40.851Z,1.40
2022-12-08T05:27:40.764Z,1.10
2022-12-08T05:28:42.735Z,1.20
2022-12-08T05:29:40.621Z,1.20
2022-12-08T05:30:40.557Z,1.20
2022-12-08T05:31:40.589Z,1.20
2022-12-08T05:32:40.448Z,1.20
2022-12-08T05:33:40.342Z,1.30
2022-12-08T05:34:40.272Z,1.20
2022-12-08T05:35:40.202Z,1.20
2022-12-08T05:36:40.132Z,1.20
2022-12-08T05:37:40.113Z,1.30
2022-12-08T05:38:40.028Z,1.00
2022-12-08T05:39:39.917Z,1.40
2022-12-08T05:40:39.858Z,1.20
2022-12-08T05:41:40.071Z,1.10
2022-12-08T05:42:41.327Z,0.90
2022-12-08T05:43:39.724Z,1.20
2022-12-08T05:44:39.878Z,1.20
2022-12-08T05:45:39.538Z,1.40
2022-12-08T05:46:39.408Z,1.10
2022-12-08T05:47:39.340Z,1.20
2022-12-08T05:48:39.262Z,1.50
2022-12-08T05:49:39.195Z,1.40
2022-12-08T05:50:39.312Z,1.40
2022-12-08T05:51:39.048Z,1.30
2022-12-08T05:52:39.016Z,1.30
2022-12-08T05:53:38.912Z,1.30
2022-12-08T05:54:38.839Z,1.70
2022-12-08T05:55:38.771Z,1.70
2022-12-08T05:56:38.877Z,1.70
2022-12-08T05:57:38.606Z,1.50
2022-12-08T05:58:38.535Z,1.50
2022-12-08T05:59:38.449Z,1.30
2022-12-08T06:00:38.384Z,1.40
2022-12-08T06:01:38.374Z,1.40
2022-12-08T06:02:38.598Z,1.30
2022-12-08T06:03:38.238Z,1.40
2022-12-08T06:04:38.110Z,1.40
2022-12-08T06:05:38.026Z,1.40
2022-12-08T06:06:38.026Z,1.30
2022-12-08T06:07:37.970Z,1.40
2022-12-08T06:08:37.882Z,1.60
2022-12-08T06:09:37.723Z,1.50
2022-12-08T06:10:37.654Z,1.30
2022-12-08T06:11:37.568Z,1.40
2022-12-08T06:12:37.502Z,1.20
2022-12-08T06:13:37.429Z,1.30
2022-12-08T06:14:37.491Z,1.40
2022-12-08T06:15:37.446Z,1.30
2022-12-08T06:16:37.269Z,1.30
2022-12-08T06:17:37.128Z,1.20
2022-12-08T06:18:37.056Z,1.30
2022-12-08T06:19:38.292Z,1.30
2022-12-08T06:20:37.035Z,1.30
2022-12-08T06:21:36.833Z,1.40
2022-12-08T06:22:36.902Z,1.30
2022-12-08T06:23:36.672Z,1.40
2022-12-08T06:24:36.603Z,1.30
2022-12-08T06:25:36.515Z,1.50
2022-12-08T06:26:36.583Z,1.40
2022-12-08T06:27:36.358Z,1.40
2022-12-08T06:28:36.297Z,1.40
2022-12-08T06:29:36.223Z,1.70
2022-12-08T06:30:36.140Z,2.00
2022-12-08T06:31:36.188Z,1.60
2022-12-08T06:32:36.131Z,1.90
2022-12-08T06:33:35.929Z,1.50
2022-12-08T06:34:35.836Z,1.60
2022-12-08T06:35:35.778Z,1.60
2022-12-08T06:36:35.688Z,1.60
2022-12-08T06:37:35.620Z,1.50
2022-12-08T06:38:38.218Z,1.60
2022-12-08T06:39:35.478Z,1.50
2022-12-08T06:40:35.385Z,1.50
2022-12-08T06:41:35.325Z,1.50
2022-12-08T06:42:35.237Z,1.50
2022-12-08T06:43:35.202Z,1.50
2022-12-08T06:44:35.108Z,1.30
2022-12-08T06:45:35.061Z,1.50
2022-12-08T06:46:34.990Z,1.50
2022-12-08T06:47:34.849Z,1.40
2022-12-08T06:48:34.778Z,1.50
2022-12-08T06:49:34.698Z,1.40
2022-12-08T06:50:34.752Z,1.30
2022-12-08T06:51:34.543Z,1.50
2022-12-08T06:52:37.674Z,1.30
2022-12-08T06:53:34.429Z,1.20
2022-12-08T06:54:34.304Z,1.40
2022-12-08T06:56:34.282Z,1.30
2022-12-08T06:57:34.087Z,1.30
2022-12-08T06:58:33.996Z,1.40
2022-12-08T06:59:33.922Z,1.50
2022-12-08T07:00:33.848Z,1.50
2022-12-08T07:01:33.869Z,1.60
2022-12-08T07:02:33.946Z,1.50
2022-12-08T07:03:33.626Z,1.40
2022-12-08T07:04:33.558Z,1.30
2022-12-08T07:05:33.467Z,1.60
2022-12-08T07:06:33.385Z,1.60
2022-12-08T07:07:33.316Z,1.30
2022-12-08T07:08:33.565Z,1.40
2022-12-08T07:09:33.138Z,1.40
2022-12-08T07:10:33.046Z,1.70
2022-12-08T07:11:32.985Z,1.50
2022-12-08T07:12:32.898Z,1.60
2022-12-08T07:13:32.841Z,1.80
2022-12-08T07:14:32.776Z,1.80
2022-12-08T07:15:32.696Z,3.10
2022-12-08T07:16:32.680Z,2.40
2022-12-08T07:17:32.520Z,2.00
2022-12-08T07:18:32.451Z,2.00
2022-12-08T07:19:32.420Z,2.20
2022-12-08T07:20:32.349Z,2.00
2022-12-08T07:21:32.224Z,2.00
2022-12-08T07:22:32.154Z,2.10
2022-12-08T07:23:32.065Z,2.00
2022-12-08T07:24:31.978Z,2.10
2022-12-08T07:25:31.909Z,1.80
2022-12-08T07:26:31.959Z,1.90
2022-12-08T07:27:31.769Z,1.70
2022-12-08T07:28:31.694Z,1.70
2022-12-08T07:29:31.616Z,1.70
2022-12-08T07:30:31.611Z,1.80
2022-12-08T07:31:31.473Z,2.00
2022-12-08T07:32:31.530Z,1.80
2022-12-08T07:33:31.327Z,1.60
2022-12-08T07:34:31.245Z,1.60
2022-12-08T07:35:31.195Z,2.00
2022-12-08T07:36:31.103Z,1.90
2022-12-08T07:37:31.035Z,1.90
2022-12-08T07:38:30.981Z,1.80
2022-12-08T07:39:30.904Z,1.50
2022-12-08T07:40:30.811Z,1.70
2022-12-08T07:41:30.742Z,1.60
2022-12-08T07:42:32.481Z,1.70
2022-12-08T07:43:30.869Z,1.70
2022-12-08T07:44:30.667Z,1.60
2022-12-08T07:45:31.862Z,1.80
2022-12-08T07:46:30.927Z,1.90
2022-12-08T07:47:30.309Z,1.50
2022-12-08T07:48:30.231Z,1.70
2022-12-08T07:49:30.167Z,1.60
2022-12-08T07:50:30.219Z,2.00
2022-12-08T07:51:30.203Z,1.90
2022-12-08T07:52:29.894Z,1.60
2022-12-08T07:53:29.907Z,2.20
2022-12-08T07:54:29.774Z,2.10
2022-12-08T07:55:29.703Z,2.00
2022-12-08T07:56:29.794Z,1.80
2022-12-08T07:57:29.579Z,1.70
2022-12-08T07:58:29.478Z,1.90
2022-12-08T07:59:29.404Z,1.70
2022-12-08T08:00:29.502Z,1.70
2022-12-08T08:01:29.531Z,1.80
2022-12-08T08:02:29.389Z,1.90
2022-12-08T08:03:29.054Z,1.70
2022-12-08T08:04:29.051Z,1.60
2022-12-08T08:05:28.902Z,1.70
2022-12-08T08:06:28.821Z,1.50
2022-12-08T08:07:28.750Z,1.90
2022-12-08T08:08:28.878Z,1.80
2022-12-08T08:09:28.599Z,1.90
2022-12-08T08:10:28.527Z,1.70
2022-12-08T08:11:28.451Z,1.60
2022-12-08T08:12:32.615Z,1.60
2022-12-08T08:13:28.306Z,1.80
2022-12-08T08:14:28.344Z,1.60
2022-12-08T08:15:28.202Z,1.80
2022-12-08T08:16:32.133Z,1.90
2022-12-08T08:17:28.430Z,2.00
2022-12-08T08:18:27.915Z,1.60
2022-12-08T08:19:27.853Z,1.80
2022-12-08T08:20:27.930Z,1.70
2022-12-08T08:22:27.640Z,1.80
2022-12-08T08:23:27.575Z,2.00
2022-12-08T08:24:27.471Z,1.80
2022-12-08T08:25:27.466Z,1.90
2022-12-08T08:26:27.461Z,2.30
2022-12-08T08:27:27.261Z,2.90
2022-12-08T08:28:27.178Z,4.80
2022-12-08T08:29:27.108Z,7.10
2022-12-08T08:30:27.125Z,7.80
2022-12-08T08:31:27.244Z,5.80
2022-12-08T08:32:27.021Z,4.70
2022-12-08T08:33:26.817Z,4.80
2022-12-08T08:34:26.760Z,4.70
2022-12-08T08:35:26.680Z,4.80
2022-12-08T08:36:26.587Z,4.30
2022-12-08T08:37:26.600Z,4.10
2022-12-08T08:38:26.500Z,4.40
2022-12-08T08:39:26.370Z,4.00
2022-12-08T08:40:26.294Z,3.90
2022-12-08T08:41:26.234Z,3.70
2022-12-08T08:42:26.198Z,3.70
2022-12-08T08:43:26.131Z,3.70
2022-12-08T08:44:26.151Z,3.90
2022-12-08T08:45:26.004Z,3.80
2022-12-08T08:46:25.986Z,3.20
2022-12-08T08:47:25.862Z,3.90
2022-12-08T08:48:25.736Z,3.60
2022-12-08T08:49:25.643Z,3.50
2022-12-08T08:50:25.690Z,3.70
2022-12-08T08:51:25.513Z,3.40
2022-12-08T08:52:25.412Z,3.40
2022-12-08T08:53:25.407Z,3.40
2022-12-08T08:54:25.331Z,3.20
2022-12-08T08:55:25.308Z,3.60
2022-12-08T08:56:25.213Z,3.10
2022-12-08T08:57:25.978Z,3.30
2022-12-08T08:58:24.979Z,3.10
2022-12-08T08:59:24.923Z,3.40
2022-12-08T09:00:24.898Z,3.10
2022-12-08T09:01:24.853Z,3.20
2022-12-08T09:02:24.862Z,3.20
2022-12-08T09:03:24.666Z,3.10
2022-12-08T09:04:24.573Z,3.30
2022-12-08T09:05:24.464Z,5.40
2022-12-08T09:06:24.432Z,5.70
2022-12-08T09:07:24.313Z,4.80
2022-12-08T09:08:24.330Z,3.70
2022-12-08T09:09:24.156Z,4.00
2022-12-08T09:10:24.166Z,4.10
2022-12-08T09:11:24.053Z,4.00
2022-12-08T09:12:23.971Z,3.90
2022-12-08T09:13:23.899Z,4.00
2022-12-08T09:14:23.937Z,3.60
2022-12-08T09:15:23.731Z,3.50
2022-12-08T09:16:23.789Z,3.70
2022-12-08T09:17:23.582Z,3.60
2022-12-08T09:18:23.493Z,3.80
2022-12-08T09:19:23.436Z,3.20
2022-12-08T09:20:30.253Z,3.60
2022-12-08T09:21:23.348Z,3.20
2022-12-08T09:22:23.182Z,3.30
2022-12-08T09:23:23.120Z,3.50
2022-12-08T09:24:23.021Z,3.40
2022-12-08T09:25:23.015Z,3.30
2022-12-08T09:26:22.888Z,3.50
2022-12-08T09:27:22.799Z,3.40
2022-12-08T09:28:22.695Z,3.30
2022-12-08T09:29:22.626Z,3.30
2022-12-08T09:30:22.559Z,3.40
2022-12-08T09:31:22.576Z,3.20
2022-12-08T09:32:22.547Z,3.20
2022-12-08T09:33:22.327Z,3.00
2022-12-08T09:34:22.232Z,3.30
2022-12-08T09:35:22.158Z,3.00
2022-12-08T09:36:22.101Z,3.20
2022-12-08T09:37:22.162Z,2.80
2022-12-08T09:38:22.099Z,3.20
2022-12-08T09:39:21.877Z,3.00
2022-12-08T09:40:21.777Z,3.50
2022-12-08T09:41:21.721Z,3.40
2022-12-08T09:42:21.651Z,3.60
2022-12-08T09:43:21.559Z,4.50
2022-12-08T09:44:21.617Z,4.70
2022-12-08T09:45:21.411Z,4.30
2022-12-08T09:46:21.400Z,3.90
2022-12-08T09:47:21.385Z,3.60
2022-12-08T09:48:21.198Z,3.50
2022-12-08T09:49:21.113Z,3.50
2022-12-08T09:50:21.237Z,3.40
2022-12-08T09:51:20.972Z,3.60
2022-12-08T09:52:20.871Z,3.30
2022-12-08T09:53:20.798Z,3.60
2022-12-08T09:54:20.718Z,3.20
2022-12-08T09:55:20.645Z,3.50
2022-12-08T09:56:20.586Z,3.30
2022-12-08T09:57:20.593Z,3.10
2022-12-08T09:58:20.396Z,2.80
2022-12-08T09:59:20.335Z,3.00
2022-12-08T10:00:20.487Z,2.80
2022-12-08T10:01:20.200Z,3.00
2022-12-08T10:02:20.352Z,2.80
2022-12-08T10:03:20.039Z,2.80
2022-12-08T10:04:19.939Z,2.90
2022-12-08T10:05:20.013Z,2.70
2022-12-08T10:06:19.798Z,2.60
2022-12-08T10:07:19.725Z,2.60
2022-12-08T10:08:19.841Z,2.70
2022-12-08T10:09:22.655Z,2.80
2022-12-08T10:10:19.471Z,2.80
2022-12-08T10:11:19.390Z,2.40
2022-12-08T10:12:19.325Z,2.70
2022-12-08T10:13:19.235Z,2.30
2022-12-08T10:14:19.274Z,2.60
2022-12-08T10:15:19.083Z,2.40
2022-12-08T10:16:24.228Z,2.60
2022-12-08T10:17:18.932Z,2.40
2022-12-08T10:18:18.865Z,2.50
2022-12-08T10:19:18.778Z,2.60
2022-12-08T10:20:25.788Z,2.90
2022-12-08T10:21:18.619Z,3.20
2022-12-08T10:22:18.542Z,3.40
2022-12-08T10:23:18.458Z,3.10
2022-12-08T10:24:18.426Z,3.10
2022-12-08T10:25:18.315Z,3.20
2022-12-08T10:26:18.254Z,3.00
2022-12-08T10:27:18.165Z,3.00
2022-12-08T10:28:18.048Z,3.20
2022-12-08T10:29:17.993Z,2.80
2022-12-08T10:30:17.886Z,2.80
2022-12-08T10:31:17.899Z,2.80
2022-12-08T10:32:17.783Z,2.50
2022-12-08T10:33:17.623Z,2.80
2022-12-08T10:34:17.537Z,2.80
2022-12-08T10:35:17.471Z,2.40
2022-12-08T10:36:17.359Z,2.40
2022-12-08T10:37:17.275Z,2.60
2022-12-08T10:38:17.357Z,2.60
2022-12-08T10:39:17.109Z,2.50
2022-12-08T10:40:17.021Z,2.70
2022-12-08T10:41:16.933Z,2.30
2022-12-08T10:42:16.966Z,2.20
2022-12-08T10:43:16.760Z,2.30
2022-12-08T10:44:16.817Z,2.40
2022-12-08T10:45:16.682Z,2.40
2022-12-08T10:46:16.578Z,2.30
2022-12-08T10:47:16.425Z,2.40
2022-12-08T10:48:16.373Z,2.10
2022-12-08T10:49:16.265Z,2.10
2022-12-08T10:50:16.320Z,2.30
2022-12-08T10:51:16.112Z,2.30
2022-12-08T10:52:16.048Z,2.40
2022-12-08T10:53:15.972Z,2.50
2022-12-08T10:54:20.562Z,2.60
2022-12-08T10:55:15.846Z,2.50
2022-12-08T10:56:15.770Z,2.60
2022-12-08T10:57:15.650Z,2.70
2022-12-08T10:58:15.569Z,2.70
2022-12-08T10:59:15.498Z,2.70
2022-12-08T11:00:15.672Z,3.10
2022-12-08T11:01:15.411Z,2.90
2022-12-08T11:02:15.540Z,2.70
2022-12-08T11:03:15.166Z,2.80
2022-12-08T11:04:15.096Z,2.70
2022-12-08T11:05:15.035Z,2.80
2022-12-08T11:06:14.945Z,2.60
2022-12-08T11:07:14.859Z,2.90
2022-12-08T11:08:14.982Z,2.80
2022-12-08T11:09:14.748Z,2.50
2022-12-08T11:10:14.618Z,2.40
2022-12-08T11:11:14.537Z,2.40
2022-12-08T11:12:14.606Z,2.30
2022-12-08T11:13:14.368Z,2.50
2022-12-08T11:14:14.421Z,2.60
2022-12-08T11:15:14.228Z,2.90
2022-12-08T11:16:14.231Z,2.70
2022-12-08T11:17:14.048Z,2.80
2022-12-08T11:18:13.973Z,2.90
2022-12-08T11:19:13.888Z,2.80
2022-12-08T11:20:13.969Z,2.80
2022-12-08T11:21:13.732Z,2.80
2022-12-08T11:22:13.847Z,2.70
2022-12-08T11:23:13.565Z,2.80
2022-12-08T11:24:13.485Z,3.00
2022-12-08T11:25:13.419Z,2.80
2022-12-08T11:26:13.356Z,3.00
2022-12-08T11:27:13.240Z,3.20
2022-12-08T11:28:13.164Z,2.50
2022-12-08T11:29:13.069Z,2.90
2022-12-08T11:30:14.840Z,3.00
2022-12-08T11:31:12.978Z,2.90
2022-12-08T11:32:13.013Z,2.80
2022-12-08T11:33:12.762Z,2.90
2022-12-08T11:34:12.682Z,3.10
2022-12-08T11:35:12.637Z,3.10
2022-12-08T11:36:12.534Z,2.50
2022-12-08T11:37:12.433Z,2.90
2022-12-08T11:38:22.917Z,2.60
2022-12-08T11:39:12.277Z,2.90
2022-12-08T11:40:12.220Z,2.70
2022-12-08T11:41:16.146Z,2.90
2022-12-08T11:42:12.057Z,2.80
2022-12-08T11:43:11.960Z,2.90
2022-12-08T11:44:12.038Z,3.50
2022-12-08T11:45:11.813Z,3.60
2022-12-08T11:46:11.778Z,4.90
2022-12-08T11:47:11.654Z,4.90
2022-12-08T11:48:11.586Z,3.90
2022-12-08T11:49:11.500Z,3.70
2022-12-08T11:50:16.516Z,3.80
2022-12-08T11:51:11.337Z,3.40
2022-12-08T11:52:11.278Z,3.90
2022-12-08T11:53:11.174Z,3.60
2022-12-08T11:54:11.102Z,3.30
2022-12-08T11:55:10.984Z,3.60
2022-12-08T11:56:11.029Z,3.20
2022-12-08T11:57:10.830Z,3.10
2022-12-08T11:58:10.855Z,3.10
2022-12-08T11:59:10.671Z,3.20
2022-12-08T12:00:10.578Z,3.20
2022-12-08T12:01:10.527Z,3.00
2022-12-08T12:02:10.632Z,2.80
2022-12-08T12:03:10.378Z,3.00
2022-12-08T12:04:10.267Z,3.10
2022-12-08T12:05:10.193Z,3.10
2022-12-08T12:06:18.521Z,3.00
2022-12-08T12:07:10.051Z,2.60
2022-12-08T12:08:10.120Z,2.70
2022-12-08T12:09:09.878Z,2.90
2022-12-08T12:10:09.807Z,3.00
2022-12-08T12:11:09.728Z,2.90
2022-12-08T12:12:09.643Z,2.80
2022-12-08T12:13:09.559Z,2.70
2022-12-08T12:14:09.626Z,2.50
2022-12-08T12:15:09.405Z,2.60
2022-12-08T12:16:09.389Z,2.70
2022-12-08T12:17:09.308Z,2.70
2022-12-08T12:18:13.417Z,2.60
2022-12-08T12:19:09.106Z,2.40
2022-12-08T12:20:09.306Z,2.50
2022-12-08T12:21:08.951Z,2.50
2022-12-08T12:22:08.881Z,2.70
2022-12-08T12:23:08.771Z,2.60
2022-12-08T12:24:08.694Z,2.60
2022-12-08T12:25:08.606Z,2.40
2022-12-08T12:26:08.653Z,2.80
2022-12-08T12:27:08.445Z,2.90
2022-12-08T12:28:08.384Z,2.50
2022-12-08T12:29:08.481Z,2.50
2022-12-08T12:30:08.520Z,2.50
2022-12-08T12:31:08.213Z,2.90
2022-12-08T12:32:08.189Z,3.10
2022-12-08T12:33:07.972Z,2.80
2022-12-08T12:34:07.902Z,2.80
2022-12-08T12:35:07.821Z,2.70
2022-12-08T12:36:07.736Z,2.60
2022-12-08T12:37:07.655Z,2.90
2022-12-08T12:38:07.691Z,2.40
2022-12-08T12:39:07.478Z,2.30
2022-12-08T12:40:07.851Z,2.50
2022-12-08T12:41:07.322Z,2.50
2022-12-08T12:42:07.230Z,2.70
2022-12-08T12:43:07.143Z,2.60
2022-12-08T12:44:07.234Z,2.20
2022-12-08T12:45:06.979Z,2.30
2022-12-08T12:46:06.928Z,2.20
2022-12-08T12:47:06.819Z,2.20
2022-12-08T12:48:06.785Z,2.40
2022-12-08T12:49:06.700Z,2.20
2022-12-08T12:50:07.024Z,2.40
2022-12-08T12:51:06.506Z,2.20
2022-12-08T12:52:06.408Z,2.40
2022-12-08T12:53:12.294Z,2.50
2022-12-08T12:54:06.307Z,2.20
2022-12-08T12:55:06.209Z,2.30
2022-12-08T12:56:06.281Z,2.30
2022-12-08T12:57:06.106Z,2.20
2022-12-08T12:58:05.940Z,2.40
2022-12-08T12:59:05.860Z,1.90
2022-12-08T13:00:06.061Z,2.10
2022-12-08T13:01:05.699Z,2.30
2022-12-08T13:02:05.831Z,2.20
2022-12-08T13:03:05.649Z,2.20
2022-12-08T13:04:05.497Z,1.90
2022-12-08T13:05:05.438Z,2.00
2022-12-08T13:06:08.782Z,2.20
2022-12-08T13:07:05.264Z,2.20
2022-12-08T13:08:05.370Z,2.00
2022-12-08T13:09:05.135Z,2.30
2022-12-08T13:10:05.569Z,2.20
2022-12-08T13:11:04.924Z,2.10
2022-12-08T13:12:04.872Z,2.40
2022-12-08T13:13:04.761Z,2.10
2022-12-08T13:14:04.726Z,2.60
2022-12-08T13:15:04.712Z,2.90
2022-12-08T13:16:15.493Z,2.30
2022-12-08T13:17:04.443Z,2.60
2022-12-08T13:18:04.298Z,2.40
2022-12-08T13:19:04.220Z,2.80
2022-12-08T13:20:07.686Z,2.60
2022-12-08T13:21:04.054Z,2.80
2022-12-08T13:22:03.974Z,2.40
2022-12-08T13:23:03.883Z,2.60
2022-12-08T13:24:03.818Z,2.60
2022-12-08T13:25:03.717Z,2.50
2022-12-08T13:26:03.804Z,2.60
2022-12-08T13:27:03.570Z,2.60
2022-12-08T13:28:03.473Z,2.60
2022-12-08T13:29:03.417Z,2.50
2022-12-08T13:30:03.692Z,2.30
2022-12-08T13:31:03.297Z,2.50
2022-12-08T13:32:03.401Z,2.40
2022-12-08T13:33:17.671Z,2.30
2022-12-08T13:34:03.005Z,2.20
2022-12-08T13:35:02.903Z,2.30
2022-12-08T13:36:02.837Z,2.40
2022-12-08T13:37:02.750Z,2.20
2022-12-08T13:38:02.801Z,2.00
2022-12-08T13:39:02.590Z,2.30
2022-12-08T13:40:02.696Z,2.30
2022-12-08T13:41:02.439Z,2.20
2022-12-08T13:42:02.388Z,2.30
2022-12-08T13:43:02.288Z,2.20
2022-12-08T13:44:50.882Z,2.00
2022-12-08T13:47:33.275Z,2.40
2022-12-08T13:53:49.714Z,1.90
2022-12-08T13:57:10.691Z,2.90
2022-12-08T13:57:47.676Z,2.90
2022-12-08T13:58:47.611Z,2.80
2022-12-08T13:59:47.490Z,2.60
2022-12-08T14:00:47.625Z,2.40
2022-12-08T14:01:47.381Z,2.40
2022-12-08T14:02:48.450Z,2.40
2022-12-08T14:04:12.418Z,2.10
2022-12-08T14:05:16.941Z,2.10
2022-12-08T14:06:11.722Z,2.10
2022-12-08T14:06:47.249Z,2.10
2022-12-08T14:07:46.932Z,2.50
2022-12-08T14:09:09.961Z,2.10